Time;durP1;ratioP1;P1;durP2;ratioP2;P2;SDS_P1;SDS_P2;PMS_P1;PMS_P2;Temp;Humidity;BMP_temperature;BMP_pressure;BME280_temperature;BME280_humidity;BME280_pressure;Samples;Min_cycle;Max_cycle;Signal;HPM_P1;HPM_P2
2022/01/02 00:01:58;;;;;;;10.45;8.23;;;;;;;9.29;79.43;95388.25;5008365;28;20186;-72
2022/01/02 00:04:26;;;;;;;15.25;8.68;;;;;;;9.31;79.32;95391.44;5011109;28;20255;-74
2022/01/02 00:06:54;;;;;;;14.05;8.90;;;;;;;9.30;79.23;95395.22;5013441;28;20633;-73
2022/01/02 00:09:31;;;;;;;12.07;8.95;;;;;;;9.36;79.13;95394.84;5012934;28;20287;-73
2022/01/02 00:12:06;;;;;;;14.32;8.63;;;;;;;9.34;79.16;95401.66;5012838;28;20814;-73
2022/01/02 00:14:35;;;;;;;13.73;9.25;;;;;;;9.41;78.69;95396.66;5012353;28;20510;-74
2022/01/02 00:17:04;;;;;;;12.00;8.82;;;;;;;9.39;78.83;95405.06;5012389;28;20201;-73
2022/01/02 00:19:32;;;;;;;13.35;8.90;;;;;;;9.38;78.94;95399.94;5012278;28;20201;-73
2022/01/02 00:22:02;;;;;;;12.00;8.63;;;;;;;9.41;78.80;95399.34;5012999;28;20200;-73
2022/01/02 00:24:32;;;;;;;12.75;8.52;;;;;;;9.40;78.73;95401.25;5012796;28;20189;-73
2022/01/02 00:27:00;;;;;;;15.10;8.40;;;;;;;9.40;78.67;95405.88;5011909;28;20239;-74
2022/01/02 00:29:27;;;;;;;12.02;7.93;;;;;;;9.45;78.46;95403.03;5012023;28;20213;-73
2022/01/02 00:31:55;;;;;;;14.13;9.00;;;;;;;9.46;78.49;95399.25;4994797;28;20249;-74
2022/01/02 00:34:22;;;;;;;12.88;8.70;;;;;;;9.43;78.64;95397.16;5012844;28;20201;-73
2022/01/02 00:36:49;;;;;;;11.90;9.00;;;;;;;9.40;78.84;95400.47;5012081;28;20224;-73
2022/01/02 00:39:17;;;;;;;13.98;8.95;;;;;;;9.37;78.55;95387.53;5012420;28;20197;-73
2022/01/02 00:41:53;;;;;;;13.18;8.43;;;;;;;9.45;78.57;95392.22;5012303;28;20239;-73
2022/01/02 00:44:33;;;;;;;11.27;8.45;;;;;;;9.45;78.45;95397.63;5012407;28;20200;-74
2022/01/02 00:47:08;;;;;;;13.52;8.77;;;;;;;9.46;78.63;95405.44;5012468;28;20229;-73
2022/01/02 00:49:39;;;;;;;12.75;8.65;;;;;;;9.46;78.26;95401.94;5012204;28;20223;-74
2022/01/02 00:52:13;;;;;;;12.23;8.95;;;;;;;9.45;78.42;95403.03;5012341;28;20284;-73
2022/01/02 00:54:45;;;;;;;12.68;8.63;;;;;;;9.41;78.41;95392.06;5012197;28;20201;-73
2022/01/02 00:57:18;;;;;;;11.93;8.68;;;;;;;9.40;78.38;95397.75;5012020;28;20284;-73
2022/01/02 00:59:49;;;;;;;11.32;8.52;;;;;;;9.44;78.34;95396.03;5011960;28;20281;-73
2022/01/02 01:02:29;;;;;;;10.40;8.05;;;;;;;9.41;78.36;95402.06;5011738;28;20668;-73
2022/01/02 01:04:58;;;;;;;10.30;8.00;;;;;;;9.49;77.65;95398.63;5012391;28;20200;-76
2022/01/02 01:07:27;;;;;;;10.90;8.32;;;;;;;9.43;77.95;95394.47;5011674;28;20240;-73
2022/01/02 01:09:56;;;;;;;13.52;8.23;;;;;;;9.46;77.90;95399.25;5011817;28;20623;-73
2022/01/02 01:12:25;;;;;;;9.88;7.45;;;;;;;9.48;77.58;95397.03;5011931;28;20200;-73
2022/01/02 01:14:52;;;;;;;11.85;8.75;;;;;;;9.48;77.78;95408.66;5011511;28;20224;-73
2022/01/02 01:17:19;;;;;;;12.80;8.77;;;;;;;9.50;77.69;95408.38;5011873;28;20201;-73
2022/01/02 01:19:46;;;;;;;14.13;7.72;;;;;;;9.50;77.53;95397.53;5011597;28;20252;-73
2022/01/02 01:22:13;;;;;;;10.30;7.45;;;;;;;9.53;77.26;95405.06;5011702;28;20245;-73
2022/01/02 01:24:40;;;;;;;9.70;7.13;;;;;;;9.52;77.20;95392.63;5011423;28;20723;-74
2022/01/02 01:27:08;;;;;;;8.93;6.72;;;;;;;9.52;77.23;95393.44;5011666;28;20233;-73
2022/01/02 01:29:38;;;;;;;13.02;8.30;;;;;;;9.52;77.17;95396.16;5011115;28;20296;-75
2022/01/02 01:32:06;;;;;;;8.93;7.45;;;;;;;9.50;77.23;95401.06;5011350;28;20244;-73
2022/01/02 01:34:35;;;;;;;9.52;7.40;;;;;;;9.53;76.99;95389.63;5010760;28;20637;-73
2022/01/02 01:37:02;;;;;;;10.82;7.07;;;;;;;9.54;76.79;95385.03;5011543;28;20213;-73
2022/01/02 01:39:29;;;;;;;10.65;7.22;;;;;;;9.53;77.01;95394.25;5010715;28;20256;-73
2022/01/02 01:42:05;;;;;;;10.13;6.78;;;;;;;9.53;76.62;95383.41;5010923;28;20315;-73
2022/01/02 01:44:41;;;;;;;10.93;7.18;;;;;;;9.60;76.43;95394.63;5011274;28;20189;-73
2022/01/02 01:47:09;;;;;;;9.82;6.75;;;;;;;9.58;76.51;95397.63;5011113;28;20239;-74
2022/01/02 01:49:36;;;;;;;8.27;6.28;;;;;;;9.56;76.61;95399.06;5011192;28;20204;-73
2022/01/02 01:52:03;;;;;;;10.18;6.50;;;;;;;9.54;76.73;95395.84;5010901;28;20301;-73
2022/01/02 01:54:31;;;;;;;9.52;6.53;;;;;;;9.56;76.35;95396.34;5010736;28;20664;-73
2022/01/02 01:56:57;;;;;;;9.25;6.22;;;;;;;9.61;76.04;95394.31;5011515;28;20205;-73
2022/01/02 01:59:25;;;;;;;9.65;6.43;;;;;;;9.63;75.81;95394.03;5010044;28;20205;-74
2022/01/02 02:01:52;;;;;;;8.05;6.55;;;;;;;9.70;75.51;95399.84;5010298;28;20253;-73
2022/01/02 02:04:20;;;;;;;7.95;5.97;;;;;;;9.63;75.90;95394.03;5009954;28;20240;-73
2022/01/02 02:06:47;;;;;;;8.00;5.88;;;;;;;9.60;75.91;95391.91;5010696;28;20232;-73
2022/01/02 02:09:14;;;;;;;8.43;6.28;;;;;;;9.62;75.62;95392.41;5010496;28;20588;-73
2022/01/02 02:11:41;;;;;;;9.18;6.38;;;;;;;9.65;75.81;95397.22;5011090;28;20224;-73
2022/01/02 02:14:09;;;;;;;7.65;5.75;;;;;;;9.73;75.18;95385.69;5010673;28;20197;-73
2022/01/02 02:16:36;;;;;;;7.57;5.72;;;;;;;9.72;75.34;95386.78;5010317;28;20217;-73
2022/01/02 02:19:04;;;;;;;7.40;5.97;;;;;;;9.68;75.24;95385.81;5010812;28;20205;-73
2022/01/02 02:21:35;;;;;;;7.65;5.80;;;;;;;9.65;75.60;95375.59;5010298;28;20205;-73
2022/01/02 02:24:02;;;;;;;8.75;6.10;;;;;;;9.58;75.66;95389.50;5010704;28;20197;-75
2022/01/02 02:26:29;;;;;;;8.38;6.40;;;;;;;9.61;75.64;95390.81;5009637;28;20239;-73
2022/01/02 02:28:56;;;;;;;7.38;5.03;;;;;;;9.63;75.42;95383.22;5010242;28;20263;-73
2022/01/02 02:31:23;;;;;;;8.70;6.38;;;;;;;9.60;75.76;95389.22;5009548;28;20767;-73
2022/01/02 02:33:50;;;;;;;8.23;5.72;;;;;;;9.62;75.63;95387.00;5010675;28;20224;-73
2022/01/02 02:36:17;;;;;;;11.27;6.65;;;;;;;9.62;75.47;95381.59;5010321;28;20201;-72
2022/01/02 02:38:45;;;;;;;8.00;5.90;;;;;;;9.58;75.49;95391.41;5010611;28;20229;-72
2022/01/02 02:41:13;;;;;;;8.27;6.45;;;;;;;9.62;75.35;95389.72;5011057;28;20240;-72
2022/01/02 02:43:47;;;;;;;6.60;5.70;;;;;;;9.58;75.42;95392.22;5010213;28;20213;-72
2022/01/02 02:49:05;;;;;;;7.90;5.97;;;;;;;9.55;75.64;95390.13;4953602;28;20214;-72
2022/01/02 02:51:46;;;;;;;9.25;6.65;;;;;;;9.51;75.52;95386.44;5010085;28;20636;-72
2022/01/02 02:54:19;;;;;;;7.70;5.85;;;;;;;9.55;75.39;95386.63;5009785;28;20233;-72
2022/01/02 02:56:55;;;;;;;8.05;5.95;;;;;;;9.50;75.71;95400.25;5009972;28;20189;-72
2022/01/02 02:59:23;;;;;;;8.43;6.38;;;;;;;9.49;75.37;95394.03;5010169;28;20192;-72
2022/01/02 03:01:50;;;;;;;8.50;6.75;;;;;;;9.46;75.80;95415.47;5009546;28;20205;-73
2022/01/02 03:04:17;;;;;;;8.52;5.90;;;;;;;9.49;75.76;95404.06;5009413;28;20201;-72
2022/01/02 03:06:44;;;;;;;9.75;6.75;;;;;;;9.45;75.68;95403.03;5008753;28;20559;-72
2022/01/02 03:09:11;;;;;;;8.52;6.07;;;;;;;9.46;75.67;95404.66;5009154;28;20218;-73
2022/01/02 03:11:41;;;;;;;8.88;5.43;;;;;;;9.48;75.57;95407.84;5009742;28;20224;-74
2022/01/02 03:14:10;;;;;;;7.82;6.15;;;;;;;9.44;75.73;95412.25;5009648;28;20205;-74
2022/01/02 03:16:37;;;;;;;11.98;5.82;;;;;;;9.47;75.69;95417.06;5009566;28;20279;-73
2022/01/02 03:19:05;;;;;;;8.77;6.47;;;;;;;9.46;75.74;95410.06;5009527;28;20196;-72
2022/01/02 03:21:32;;;;;;;8.25;6.15;;;;;;;9.48;75.68;95419.47;5009605;28;20226;-72
2022/01/02 03:23:59;;;;;;;8.80;6.35;;;;;;;9.52;75.77;95422.38;5009229;28;20248;-77
2022/01/02 03:26:26;;;;;;;9.57;6.28;;;;;;;9.58;75.58;95413.06;5009604;28;20221;-73
2022/01/02 03:28:54;;;;;;;8.30;6.07;;;;;;;9.51;75.83;95412.66;5009244;28;20205;-72
2022/01/02 03:31:21;;;;;;;8.40;6.38;;;;;;;9.53;75.69;95415.88;5009188;28;20217;-74
2022/01/02 03:33:48;;;;;;;8.77;6.63;;;;;;;9.47;75.96;95417.06;5008888;28;20703;-74
2022/01/02 03:36:15;;;;;;;8.50;5.80;;;;;;;9.48;75.72;95411.38;5009420;28;20271;-73
2022/01/02 03:38:42;;;;;;;9.50;6.32;;;;;;;9.48;75.85;95413.25;5009032;28;20204;-73
2022/01/02 03:41:09;;;;;;;9.85;6.80;;;;;;;9.49;75.97;95417.56;5009192;28;20281;-73
2022/01/02 03:43:36;;;;;;;8.18;6.15;;;;;;;9.49;76.17;95414.88;5009356;28;20656;-73
2022/01/02 03:46:04;;;;;;;9.20;6.60;;;;;;;9.41;76.18;95412.88;5009423;28;20211;-74
2022/01/02 03:48:31;;;;;;;8.45;5.75;;;;;;;9.43;76.25;95414.16;5009268;28;20513;-73
2022/01/02 03:50:59;;;;;;;9.48;6.18;;;;;;;9.36;76.55;95410.25;5009201;28;20209;-73
2022/01/02 03:53:26;;;;;;;9.55;6.53;;;;;;;9.30;76.61;95406.03;5009098;28;20204;-73
2022/01/02 03:55:53;;;;;;;8.45;6.47;;;;;;;9.26;76.93;95400.47;5009469;28;20353;-73
2022/01/02 03:58:20;;;;;;;7.57;6.22;;;;;;;9.23;77.07;95403.75;5009026;28;20201;-72
2022/01/02 04:00:47;;;;;;;8.30;6.30;;;;;;;9.19;77.18;95406.25;5008924;28;20197;-73
2022/01/02 04:03:16;;;;;;;9.25;6.75;;;;;;;9.12;77.43;95410.47;5008728;28;20653;-72
2022/01/02 04:05:44;;;;;;;12.13;6.55;;;;;;;9.07;77.53;95413.25;5008820;28;20201;-72
2022/01/02 04:08:11;;;;;;;10.25;6.80;;;;;;;8.95;77.74;95408.31;5009340;28;20331;-72
2022/01/02 04:10:38;;;;;;;10.35;6.85;;;;;;;8.97;78.06;95419.66;5009059;28;20574;-73
2022/01/02 04:13:06;;;;;;;12.55;7.68;;;;;;;8.91;78.47;95423.53;5009243;28;20213;-72
2022/01/02 04:15:33;;;;;;;9.52;6.97;;;;;;;8.86;78.54;95435.25;5008689;28;20275;-73
2022/01/02 04:18:00;;;;;;;11.25;7.05;;;;;;;8.92;78.31;95433.22;5009065;28;20506;-73
2022/01/02 04:20:29;;;;;;;11.43;7.25;;;;;;;8.90;78.41;95438.13;5009020;28;20201;-72
2022/01/02 04:22:56;;;;;;;11.00;6.97;;;;;;;8.92;78.60;95444.03;5009030;28;20563;-72
2022/01/02 04:25:23;;;;;;;13.00;7.03;;;;;;;8.93;78.45;95437.53;5008727;28;20197;-73
2022/01/02 04:27:50;;;;;;;9.73;7.05;;;;;;;9.00;78.28;95440.66;5008800;28;20236;-72
2022/01/02 04:30:16;;;;;;;9.90;6.85;;;;;;;8.96;78.52;95445.06;5007928;28;20221;-73
2022/01/02 04:32:44;;;;;;;9.73;7.47;;;;;;;8.98;78.52;95448.28;5008679;28;20212;-72
2022/01/02 04:35:11;;;;;;;13.65;7.07;;;;;;;9.04;78.22;95449.75;5008430;28;20197;-72
2022/01/02 04:37:39;;;;;;;9.45;6.30;;;;;;;9.04;78.15;95436.25;5008901;28;20607;-73
2022/01/02 04:40:07;;;;;;;9.13;6.60;;;;;;;9.12;78.16;95440.19;5008351;28;20205;-73
2022/01/02 04:42:34;;;;;;;10.93;7.18;;;;;;;9.11;78.10;95439.38;5008508;28;20241;-73
2022/01/02 04:45:01;;;;;;;10.38;7.07;;;;;;;9.06;78.22;95450.28;5008548;28;20212;-73
2022/01/02 04:47:28;;;;;;;12.45;7.38;;;;;;;9.01;78.37;95447.69;5008680;28;20233;-74
2022/01/02 04:49:55;;;;;;;12.25;7.20;;;;;;;9.03;78.38;95450.88;5010132;28;20750;-74
2022/01/02 04:52:21;;;;;;;9.90;6.53;;;;;;;9.07;78.47;95454.59;5012001;28;20209;-73
2022/01/02 04:54:50;;;;;;;8.93;7.15;;;;;;;9.07;78.48;95456.47;5011928;28;20212;-73
2022/01/02 04:57:17;;;;;;;9.55;7.18;;;;;;;9.04;78.68;95447.06;5012238;28;20201;-73
2022/01/02 04:59:43;;;;;;;9.85;7.10;;;;;;;9.01;79.06;95453.09;5011801;28;20588;-73
2022/01/02 05:02:10;;;;;;;10.13;7.30;;;;;;;9.01;79.10;95453.09;5011798;28;20200;-73
2022/01/02 05:04:37;;;;;;;12.93;7.72;;;;;;;9.02;79.03;95453.88;5011973;28;20591;-74
2022/01/02 05:07:05;;;;;;;9.65;6.63;;;;;;;8.94;79.36;95455.34;5011530;28;20239;-73
2022/01/02 05:09:32;;;;;;;9.50;7.13;;;;;;;9.03;79.14;95455.47;5011735;28;20201;-73
2022/01/02 05:12:00;;;;;;;10.77;7.15;;;;;;;9.06;79.10;95452.19;5010994;28;20209;-72
2022/01/02 05:14:27;;;;;;;8.98;5.45;;;;;;;9.07;78.68;95441.06;5011661;28;20653;-76
2022/01/02 05:16:54;;;;;;;9.30;7.05;;;;;;;9.12;79.00;95453.69;5012204;28;20213;-73
2022/01/02 05:19:21;;;;;;;9.52;6.57;;;;;;;9.11;78.99;95450.19;5012572;28;20204;-73
2022/01/02 05:21:48;;;;;;;10.07;6.43;;;;;;;9.10;78.99;95462.09;5011918;28;20201;-73
2022/01/02 05:24:15;;;;;;;9.70;7.10;;;;;;;9.11;79.03;95457.50;5012846;28;20209;-74
2022/01/02 05:26:42;;;;;;;9.07;6.85;;;;;;;9.15;78.83;95453.91;5011577;28;20208;-73
2022/01/02 05:29:10;;;;;;;10.35;7.13;;;;;;;9.14;78.85;95463.13;5011310;28;20215;-73
2022/01/02 05:31:37;;;;;;;9.85;7.35;;;;;;;9.14;78.87;95468.53;5011365;28;20232;-73
2022/01/02 05:34:04;;;;;;;9.95;7.28;;;;;;;9.11;79.03;95460.22;5010448;28;20213;-73
2022/01/02 05:36:31;;;;;;;9.43;6.65;;;;;;;9.13;78.74;95456.13;5010238;28;20205;-73
2022/01/02 05:38:58;;;;;;;10.77;7.45;;;;;;;9.18;78.66;95457.91;5010770;28;20216;-73
2022/01/02 05:41:26;;;;;;;9.90;7.50;;;;;;;9.14;78.75;95463.13;5011300;28;20714;-73
2022/01/02 05:43:53;;;;;;;9.40;7.35;;;;;;;9.17;78.56;95462.50;5010860;28;20197;-73
2022/01/02 05:46:22;;;;;;;12.18;7.72;;;;;;;9.17;78.67;95465.22;5010558;28;20283;-73
2022/01/02 05:48:50;;;;;;;11.10;7.50;;;;;;;9.21;78.48;95468.13;5010621;28;20233;-73
2022/01/02 05:51:17;;;;;;;11.27;7.10;;;;;;;9.25;78.06;95461.84;5011227;28;20201;-73
2022/01/02 05:53:44;;;;;;;9.23;6.68;;;;;;;9.24;78.29;95470.25;5010875;28;20219;-73
2022/01/02 05:56:11;;;;;;;10.32;7.32;;;;;;;9.20;78.42;95478.13;5011131;28;20205;-72
2022/01/02 05:58:37;;;;;;;9.32;6.53;;;;;;;9.21;78.46;95471.63;5010619;28;20248;-73
2022/01/02 06:01:04;;;;;;;9.75;6.82;;;;;;;9.25;78.30;95464.53;5009889;28;20209;-73
2022/01/02 06:03:33;;;;;;;10.45;7.25;;;;;;;9.22;78.45;95465.13;5010612;28;20679;-73
2022/01/02 06:06:00;;;;;;;8.32;6.32;;;;;;;9.19;78.43;95463.00;5010496;28;20209;-73
2022/01/02 06:08:26;;;;;;;9.75;7.53;;;;;;;9.19;78.57;95471.13;5010441;28;20239;-73
2022/01/02 06:10:53;;;;;;;8.73;6.32;;;;;;;9.23;78.20;95472.13;5010883;28;20563;-73
2022/01/02 06:13:20;;;;;;;8.57;6.20;;;;;;;9.21;78.46;95474.34;5010104;28;20205;-73
2022/01/02 06:15:48;;;;;;;8.52;6.47;;;;;;;9.23;78.25;95482.97;5010312;28;20275;-73
2022/01/02 06:18:15;;;;;;;8.85;6.18;;;;;;;9.25;78.26;95475.34;5010379;28;20291;-73
2022/01/02 06:20:43;;;;;;;10.13;6.20;;;;;;;9.24;78.03;95484.56;5010554;28;20344;-74
2022/01/02 06:23:10;;;;;;;9.07;6.20;;;;;;;9.23;78.29;95482.97;5010153;28;20675;-73
2022/01/02 06:25:37;;;;;;;9.02;6.70;;;;;;;9.30;77.82;95479.03;5010776;28;20201;-73
2022/01/02 06:28:04;;;;;;;8.82;6.18;;;;;;;9.26;77.73;95481.56;5010509;28;20237;-72
2022/01/02 06:30:32;;;;;;;7.82;5.85;;;;;;;9.32;77.30;95484.97;5010284;28;20233;-73
2022/01/02 06:32:59;;;;;;;7.97;5.65;;;;;;;9.35;77.30;95492.47;5010240;28;20205;-72
2022/01/02 06:35:27;;;;;;;8.20;5.70;;;;;;;9.36;77.12;95502.19;5010047;28;20212;-72
2022/01/02 06:37:57;;;;;;;8.60;5.63;;;;;;;9.36;77.14;95496.78;5010197;28;20201;-72
2022/01/02 06:40:25;;;;;;;8.43;5.97;;;;;;;9.38;76.86;95497.31;5010037;28;20224;-72
2022/01/02 06:42:52;;;;;;;7.38;5.45;;;;;;;9.38;76.86;95494.59;5009811;28;20236;-73
2022/01/02 06:45:19;;;;;;;8.57;5.88;;;;;;;9.36;77.20;95502.19;5009565;28;20208;-74
2022/01/02 06:47:46;;;;;;;6.70;5.80;;;;;;;9.34;77.09;95505.19;5009876;28;20283;-73
2022/01/02 06:50:13;;;;;;;9.82;6.18;;;;;;;9.32;77.37;95498.47;5009975;28;20600;-73
2022/01/02 06:52:41;;;;;;;8.38;6.40;;;;;;;9.36;77.08;95494.09;5010110;28;20201;-73
2022/01/02 06:55:10;;;;;;;9.15;6.13;;;;;;;9.37;76.75;95498.41;5009586;28;20734;-73
2022/01/02 06:57:37;;;;;;;6.45;5.43;;;;;;;9.55;76.53;95516.47;5010112;28;20263;-73
2022/01/02 07:00:06;;;;;;;9.43;5.80;;;;;;;9.57;76.26;95512.31;4990106;28;20209;-72
2022/01/02 07:02:33;;;;;;;6.82;5.03;;;;;;;9.54;76.25;95514.84;4990463;28;20280;-73
2022/01/02 07:05:01;;;;;;;7.75;5.50;;;;;;;9.59;76.28;95517.44;4989913;28;20209;-73
2022/01/02 07:07:27;;;;;;;8.57;5.82;;;;;;;9.63;76.09;95523.88;4990137;28;20331;-73
2022/01/02 07:09:54;;;;;;;7.70;4.95;;;;;;;9.69;75.83;95521.88;4989409;28;20201;-73
2022/01/02 07:12:23;;;;;;;7.13;5.03;;;;;;;9.71;75.91;95530.47;4989438;28;20209;-73
2022/01/02 07:14:50;;;;;;;7.05;5.30;;;;;;;9.77;75.33;95524.69;4989725;28;20926;-73
2022/01/02 07:17:17;;;;;;;9.55;5.68;;;;;;;9.69;75.45;95528.09;4990397;28;20210;-73
2022/01/02 07:19:44;;;;;;;6.88;5.10;;;;;;;9.78;75.62;95537.13;4990299;28;20209;-72
2022/01/02 07:22:11;;;;;;;8.48;5.60;;;;;;;9.85;75.12;95542.91;5003175;28;20200;-73
2022/01/02 07:24:39;;;;;;;7.93;5.53;;;;;;;9.93;74.99;95538.72;5009366;28;20911;-73
2022/01/02 07:27:06;;;;;;;7.40;5.32;;;;;;;9.88;75.13;95541.53;5009561;28;20272;-72
2022/01/02 07:29:35;;;;;;;8.68;5.50;;;;;;;9.94;74.84;95545.75;5009315;28;20255;-72
2022/01/02 07:32:01;;;;;;;8.35;5.63;;;;;;;9.88;75.24;95547.72;5009240;28;20197;-72
2022/01/02 07:34:28;;;;;;;7.45;5.25;;;;;;;9.89;75.06;95549.34;5009192;28;20467;-73
2022/01/02 07:36:55;;;;;;;7.80;5.75;;;;;;;9.89;75.25;95552.03;5009417;28;20204;-73
2022/01/02 07:39:22;;;;;;;7.03;5.15;;;;;;;9.86;75.48;95549.94;5009127;28;20209;-72
2022/01/02 07:41:49;;;;;;;8.18;5.55;;;;;;;9.84;75.71;95545.94;5009145;28;20271;-73
2022/01/02 07:44:16;;;;;;;9.00;5.60;;;;;;;9.93;75.43;95539.53;5009620;28;20201;-72
2022/01/02 07:46:44;;;;;;;5.93;4.88;;;;;;;9.79;75.55;95546.84;5008445;28;20307;-72
2022/01/02 07:49:11;;;;;;;8.13;5.68;;;;;;;9.72;75.90;95549.13;5008630;28;20235;-73
2022/01/02 07:51:38;;;;;;;6.75;5.45;;;;;;;9.66;75.86;95544.13;5009382;28;20248;-73
2022/01/02 07:54:05;;;;;;;5.97;4.68;;;;;;;9.74;75.69;95536.09;5009367;28;20217;-72
2022/01/02 07:56:32;;;;;;;10.20;5.30;;;;;;;9.82;75.40;95545.44;5009017;28;20607;-73
2022/01/02 07:58:59;;;;;;;8.85;6.00;;;;;;;9.84;75.57;95538.59;5008589;28;20710;-72
2022/01/02 08:01:27;;;;;;;8.20;5.40;;;;;;;9.86;75.73;95528.28;5008729;28;20232;-72
2022/01/02 08:03:55;;;;;;;8.95;5.63;;;;;;;10.08;75.05;95543.03;5008687;28;20231;-73
2022/01/02 08:06:22;;;;;;;12.13;5.85;;;;;;;10.15;74.88;95540.72;5008637;28;20208;-72
2022/01/02 08:08:49;;;;;;;7.03;5.40;;;;;;;10.08;74.78;95537.63;5009237;28;20279;-73
2022/01/02 08:11:17;;;;;;;7.60;5.20;;;;;;;10.03;74.93;95543.13;5008964;28;20671;-74
2022/01/02 08:13:44;;;;;;;7.97;5.78;;;;;;;10.00;74.54;95541.81;5008250;28;20382;-73
2022/01/02 08:16:11;;;;;;;11.00;5.75;;;;;;;10.09;74.69;95545.44;5008417;28;20228;-73
2022/01/02 08:18:38;;;;;;;6.75;5.00;;;;;;;9.95;74.67;95541.94;5008048;28;20201;-72
2022/01/02 08:21:07;;;;;;;6.75;4.97;;;;;;;10.08;73.91;95534.91;5009029;28;20669;-72
2022/01/02 08:23:34;;;;;;;6.55;4.95;;;;;;;10.29;73.78;95546.94;5009050;28;20264;-73
2022/01/02 08:26:01;;;;;;;7.53;4.90;;;;;;;10.34;73.56;95549.56;5012265;28;20225;-73
2022/01/02 08:28:28;;;;;;;7.35;4.70;;;;;;;10.45;73.14;95552.84;5012581;28;20236;-72
2022/01/02 08:30:55;;;;;;;7.10;4.75;;;;;;;10.48;72.85;95542.22;5012618;28;20221;-73
2022/01/02 08:33:22;;;;;;;6.18;5.30;;;;;;;10.66;72.76;95552.09;5012918;28;20213;-72
2022/01/02 08:35:49;;;;;;;5.55;4.45;;;;;;;10.55;72.13;95542.59;5012210;28;20668;-73
2022/01/02 08:38:18;;;;;;;7.05;4.75;;;;;;;10.57;72.41;95545.78;5012730;28;20283;-73
2022/01/02 08:40:44;;;;;;;7.43;4.80;;;;;;;10.76;71.77;95544.84;5012381;28;20201;-73
2022/01/02 08:43:12;;;;;;;6.50;4.50;;;;;;;10.78;71.44;95548.06;5012483;28;20185;-74
2022/01/02 08:45:39;;;;;;;5.55;3.60;;;;;;;10.95;70.21;95537.34;5012039;28;20688;-73
2022/01/02 08:48:07;;;;;;;7.07;4.25;;;;;;;10.86;70.43;95533.78;5012040;28;20652;-72
2022/01/02 08:50:34;;;;;;;7.13;4.22;;;;;;;11.00;69.89;95537.22;5011899;28;20664;-72
2022/01/02 08:53:01;;;;;;;7.95;4.25;;;;;;;11.14;69.14;95546.09;5012364;28;20255;-72
2022/01/02 08:55:29;;;;;;;5.30;3.95;;;;;;;11.15;68.53;95542.28;5011974;28;20205;-73
2022/01/02 08:57:57;;;;;;;5.68;4.28;;;;;;;11.03;68.60;95552.88;5012140;28;20209;-73
2022/01/02 09:00:24;;;;;;;4.30;3.85;;;;;;;10.92;69.07;95549.63;5012107;28;20208;-73
2022/01/02 09:02:51;;;;;;;5.80;3.88;;;;;;;11.02;68.80;95543.16;5011996;28;20239;-73
2022/01/02 09:05:19;;;;;;;5.47;4.35;;;;;;;11.10;68.45;95545.13;5011651;28;20636;-72
2022/01/02 09:07:46;;;;;;;5.88;4.20;;;;;;;11.17;67.86;95534.66;5012075;28;20208;-72
2022/01/02 09:10:15;;;;;;;4.07;3.28;;;;;;;11.28;67.72;95536.00;5011803;28;20308;-72
2022/01/02 09:12:43;;;;;;;5.82;3.85;;;;;;;10.98;68.22;95531.31;5011653;28;20201;-73
2022/01/02 09:15:11;;;;;;;4.18;3.47;;;;;;;10.99;68.60;95528.28;5011467;28;20221;-72
2022/01/02 09:17:38;;;;;;;6.05;3.83;;;;;;;10.91;68.11;95525.53;5011642;28;20271;-72
2022/01/02 09:20:06;;;;;;;4.50;3.65;;;;;;;11.09;68.14;95521.00;5011191;28;20340;-72
2022/01/02 09:22:33;;;;;;;4.82;4.25;;;;;;;10.88;67.93;95520.72;5011811;28;20297;-77
2022/01/02 09:25:00;;;;;;;6.18;3.97;;;;;;;10.75;68.11;95511.53;5011613;28;20204;-85
2022/01/02 09:27:27;;;;;;;7.15;3.92;;;;;;;10.57;68.76;95516.00;5012021;28;20201;-73
2022/01/02 09:29:55;;;;;;;6.35;3.97;;;;;;;10.66;68.80;95519.56;5011180;28;20229;-73
2022/01/02 09:32:22;;;;;;;5.35;4.18;;;;;;;10.83;68.62;95509.97;5011874;28;20201;-73
2022/01/02 09:34:49;;;;;;;10.15;3.80;;;;;;;10.78;68.35;95504.69;5011270;28;20205;-74
2022/01/02 09:37:16;;;;;;;5.20;3.30;;;;;;;10.65;67.96;95492.81;5011512;28;20214;-76
2022/01/02 09:39:43;;;;;;;4.93;3.80;;;;;;;10.80;67.77;95491.63;5011148;28;20201;-73
2022/01/02 09:42:12;;;;;;;4.75;3.60;;;;;;;11.05;66.80;95477.47;5011062;28;20225;-73
2022/01/02 09:44:39;;;;;;;6.10;3.70;;;;;;;10.87;67.40;95481.97;5011206;28;20300;-73
2022/01/02 09:47:09;;;;;;;4.55;3.72;;;;;;;10.92;67.15;95472.91;5010840;28;20232;-73
2022/01/02 09:49:38;;;;;;;4.97;3.60;;;;;;;11.16;66.79;95473.38;5011171;28;20225;-74
2022/01/02 09:52:05;;;;;;;5.10;3.70;;;;;;;11.26;67.10;95464.19;5010879;28;20236;-73
2022/01/02 09:54:33;;;;;;;5.70;3.92;;;;;;;11.22;66.65;95461.28;5010909;28;20201;-72
2022/01/02 09:57:01;;;;;;;5.22;3.97;;;;;;;11.23;66.63;95462.09;5010863;28;20540;-73
2022/01/02 09:59:28;;;;;;;5.35;3.95;;;;;;;11.33;66.88;95461.84;5010958;28;20888;-71
2022/01/02 10:01:55;;;;;;;5.50;3.95;;;;;;;11.20;67.05;95455.41;5011094;28;20205;-72
2022/01/02 10:04:35;;;;;;;3.70;2.63;;;;;;;11.08;67.26;95455.13;5011272;28;20197;-73
2022/01/02 10:07:02;;;;;;;5.05;3.25;;;;;;;11.03;66.89;95469.66;5011411;28;20204;-77
2022/01/02 10:09:34;;;;;;;6.30;4.07;;;;;;;10.89;67.75;95459.97;5011007;28;20283;-75
2022/01/02 10:12:25;;;;;;;4.97;3.55;;;;;;;11.09;67.45;95467.59;5010966;28;20225;-73
2022/01/02 10:15:15;;;;;;;5.60;4.15;;;;;;;11.12;67.48;95460.75;5010774;28;20221;-73
2022/01/02 10:17:53;;;;;;;4.80;3.88;;;;;;;11.03;67.61;95455.28;5010430;28;20232;-72
2022/01/02 10:20:22;;;;;;;4.03;3.25;;;;;;;11.24;66.82;95450.94;5010654;28;20209;-73
2022/01/02 10:23:15;;;;;;;5.55;3.83;;;;;;;11.19;67.10;95445.66;5010153;28;20201;-75
2022/01/02 10:25:46;;;;;;;4.95;3.75;;;;;;;11.40;66.59;95441.28;5005277;28;20273;-73
2022/01/02 10:28:30;;;;;;;4.30;3.40;;;;;;;11.70;65.38;95430.69;5010497;28;20196;-73
2022/01/02 10:31:00;;;;;;;3.53;2.70;;;;;;;11.29;66.43;95439.94;5009676;28;20237;-73
2022/01/02 10:33:28;;;;;;;5.07;3.58;;;;;;;11.11;67.02;95427.41;5010408;28;20201;-72
2022/01/02 10:36:02;;;;;;;5.03;3.60;;;;;;;11.25;66.49;95425.41;5010605;28;20201;-72
2022/01/02 10:38:30;;;;;;;2.15;1.75;;;;;;;11.32;65.76;95417.63;5010487;28;20216;-77
2022/01/02 10:40:57;;;;;;;4.85;3.38;;;;;;;11.41;65.92;95404.09;5009736;28;20237;-71
2022/01/02 10:43:29;;;;;;;24.48;14.55;;;;;;;11.46;65.91;95411.31;5009706;28;20208;-72
2022/01/02 10:45:57;;;;;;;7.50;4.55;;;;;;;11.37;65.67;95403.91;5009549;28;20189;-75
2022/01/02 10:48:33;;;;;;;9.35;6.47;;;;;;;11.30;65.69;95414.44;5009116;28;20205;-74
2022/01/02 10:51:05;;;;;;;4.78;3.53;;;;;;;11.44;65.48;95399.97;5009963;28;20584;-73
2022/01/02 10:53:33;;;;;;;4.47;3.40;;;;;;;11.62;65.32;95398.88;5008628;28;20244;-74
2022/01/02 10:56:01;;;;;;;3.35;2.63;;;;;;;11.65;64.94;95404.50;5008441;28;20397;-71
2022/01/02 10:58:29;;;;;;;3.75;2.72;;;;;;;11.84;64.33;95406.19;5006026;28;20208;-73
2022/01/02 11:01:02;;;;;;;5.30;3.45;;;;;;;11.81;64.22;95398.66;5030486;28;20204;-76
2022/01/02 11:03:30;;;;;;;3.67;2.85;;;;;;;11.95;63.51;95408.28;5022728;28;20220;-73
2022/01/02 11:06:06;;;;;;;4.70;2.80;;;;;;;11.88;63.50;95401.72;5030913;28;20204;-73
2022/01/02 11:08:35;;;;;;;3.42;2.45;;;;;;;11.72;63.79;95401.34;5031344;28;20279;-73
2022/01/02 11:11:03;;;;;;;4.00;2.60;;;;;;;11.67;64.14;95396.84;5031042;28;20723;-73
2022/01/02 11:13:31;;;;;;;4.13;3.05;;;;;;;11.58;64.45;95397.94;5030975;28;20231;-73
2022/01/02 11:16:00;;;;;;;3.70;2.72;;;;;;;11.67;64.57;95393.31;5030517;28;20626;-73
2022/01/02 11:18:30;;;;;;;3.38;2.40;;;;;;;11.64;64.40;95380.38;5030623;28;20211;-73
2022/01/02 11:20:57;;;;;;;3.35;2.70;;;;;;;11.73;64.06;95371.16;5023946;28;20189;-72
2022/01/02 11:23:31;;;;;;;3.10;2.40;;;;;;;11.75;63.59;95376.28;5010861;28;20208;-73
2022/01/02 11:26:07;;;;;;;4.15;2.53;;;;;;;11.64;63.50;95359.47;5030400;28;20203;-76
2022/01/02 11:28:38;;;;;;;3.28;2.30;;;;;;;11.74;63.37;95367.34;5030429;28;20195;-80
2022/01/02 11:31:07;;;;;;;4.20;2.70;;;;;;;11.69;63.43;95350.38;5007659;28;20930;-76
2022/01/02 11:33:41;;;;;;;2.92;1.70;;;;;;;11.79;62.92;95369.13;5008357;28;20201;-74
2022/01/02 11:36:26;;;;;;;3.10;2.50;;;;;;;11.86;63.05;95366.75;5006032;28;20200;-73
2022/01/02 11:39:04;;;;;;;3.33;2.58;;;;;;;11.97;63.03;95367.22;5010681;28;20188;-74
2022/01/02 11:41:36;;;;;;;3.92;2.50;;;;;;;12.25;61.80;95362.28;5010412;28;20220;-73
2022/01/02 11:44:04;;;;;;;4.10;3.05;;;;;;;12.10;62.84;95364.38;5012020;28;20197;-73
2022/01/02 11:46:33;;;;;;;3.60;2.85;;;;;;;12.37;61.93;95349.66;5012139;28;20227;-74